LPCSLPFR

Guest
Details From LPCS - Cascais
To LPFR - Faro
Flight Number -
Tags Generated
Created
Modified
Stats Distance 122 nm / 225 km
Max Altitude 0 ft / 0 m
Waypoints 2
Social Downloads 2
Likes 0
Share VATSIM

Download

Looking for another format? Having issues loading an existing format? Contact us
Advertisement - Login to hide

Notes

Generated

Route

LPCS LPFR

ID Type Via Altitude Latitude Longitude Leg Dist Tot Dist Heading (true) Name
O LPCS APT - 0 ft / 0 m 38.72949˚ -9.35678˚ - 0 nm - CASCAIS
O LPFR APT - 0 ft / 0 m 37.01729˚ -7.98609˚ 121 nm 121 nm 147° / 148° -

Altitude Profile

Advertisement - Login to hide

LPCS

Details ICAO LPCS
Name CASCAIS
Region Portugal
Timezone Europe/Lisbon (UTC+1.0)
Stats Elevation 326 ft / 99 m (AMSL)
Location 38.725175° -9.355256°
Runways 1
Magnetic Variation 2.381° W

METAR

LPCS 211300Z 27008KT 230V300 9999 FEW022 18/11 Q1013

Decode

TAF

Not found

Departure Runways

ID Width Length Bearing (true) Bearing (mag) Surface Threshold Offset Overrun Length
17 98 ft / 30 m 5,664 ft / 1,726 m 164.14° 166.52° Asphalt 354 ft / 108 m 0 ft / 0 m
35 98 ft / 30 m 5,664 ft / 1,726 m 344.14° 346.52° Asphalt 574 ft / 175 m 0 ft / 0 m

LPFR

Details ICAO LPFR (FAO)
Name Faro
Region Portugal
Timezone Europe/Lisbon (UTC+1.0)
Stats Elevation 24 ft / 7 m (AMSL)
Location 37.015336° -7.972327°
Runways 1
Magnetic Variation 1.884° W

METAR

LPFR 211300Z 20008KT 170V230 9999 FEW015 20/15 Q1013

Decode

TAF

TAF LPFR 211100Z 2112/2212 22008KT 9999 BKN015 BECMG 2114/2116 26015KT SCT020 BECMG 2120/2122 29010KT BECMG 2201/2203 34005KT 9999 SCT015 BECMG 2210/2212 20008KT FEW020

Decode

Destination Runways

ID Width Length Bearing (true) Bearing (mag) Surface Threshold Offset Overrun Length
10 148 ft / 45 m 8,148 ft / 2,484 m 100.08° 101.96° Asphalt 148 ft / 45 m 0 ft / 0 m
28 148 ft / 45 m 8,148 ft / 2,484 m 280.10° 281.98° Asphalt 148 ft / 45 m 0 ft / 0 m

Approach Navaids

Runway Type Ident Frequency Range Bearing (true) Bearing (mag) Slope Elevation
28 Localiser IIF 109.50 MHz 18 nm / 33 km 280.16° 282.05° - 24 ft / 7 m (AMSL)
28 Glidescope IIF 109.50 MHz 10 nm / 19 km 280.09° 281.97° 3.00° 24 ft / 7 m (AMSL)
28 DME IIF 109.50 MHz 18 nm / 33 km - - - 24 ft / 7 m (AMSL)

Popular Alternatives